createdAt,value
2018-09-21T00:00:48.111Z,9.23
2018-09-21T00:03:21.151Z,8.27
2018-09-21T00:05:50.145Z,6.63
2018-09-21T00:08:24.046Z,5.30
2018-09-21T00:10:53.182Z,10.23
2018-09-21T00:13:26.232Z,7.83
2018-09-21T00:15:54.457Z,8.13
2018-09-21T00:18:27.366Z,7.03
2018-09-21T00:20:55.920Z,9.10
2018-09-21T00:26:00.080Z,6.37
2018-09-21T00:28:32.896Z,5.80
2018-09-21T00:31:01.545Z,9.57
2018-09-21T00:33:34.920Z,9.40
2018-09-21T00:36:03.551Z,10.27
2018-09-21T00:38:37.436Z,8.50
2018-09-21T00:41:06.276Z,9.53
2018-09-21T00:43:39.581Z,8.10
2018-09-21T00:46:08.683Z,8.07
2018-09-21T00:48:40.029Z,9.27
2018-09-21T00:51:10.381Z,8.37
2018-09-21T00:53:39.363Z,7.83
2018-09-21T00:56:07.940Z,9.50
2018-09-21T00:58:36.217Z,6.47
2018-09-21T01:01:05.094Z,6.17
2018-09-21T01:03:33.315Z,6.60
2018-09-21T01:06:01.922Z,7.30
2018-09-21T01:08:31.137Z,6.63
2018-09-21T01:10:59.700Z,6.97
2018-09-21T01:13:28.301Z,6.03
2018-09-21T01:16:00.340Z,7.13
2018-09-21T01:18:28.932Z,10.27
2018-09-21T01:21:02.331Z,6.73
2018-09-21T01:23:31.402Z,5.87
2018-09-21T01:26:04.972Z,6.13
2018-09-21T01:28:33.828Z,10.63
2018-09-21T01:31:08.020Z,6.83
2018-09-21T01:33:36.603Z,8.87
2018-09-21T01:36:10.059Z,7.00
2018-09-21T01:38:38.787Z,8.37
2018-09-21T01:43:40.853Z,8.67
2018-09-21T01:46:15.019Z,7.77
2018-09-21T01:48:43.614Z,8.40
2018-09-21T01:51:16.540Z,8.00
2018-09-21T01:53:46.299Z,6.67
2018-09-21T01:56:19.836Z,7.33
2018-09-21T01:58:48.171Z,7.40
2018-09-21T02:01:20.947Z,5.90
2018-09-21T02:03:50.875Z,6.73
2018-09-21T02:06:24.449Z,7.57
2018-09-21T02:08:53.185Z,6.93
2018-09-21T02:11:26.705Z,6.60
2018-09-21T02:13:55.293Z,6.23
2018-09-21T02:18:57.160Z,6.07
2018-09-21T02:21:30.516Z,5.77
2018-09-21T02:23:59.104Z,5.07
2018-09-21T02:26:28.213Z,10.27
2018-09-21T02:28:57.073Z,7.30
2018-09-21T02:31:25.319Z,4.33
2018-09-21T02:33:53.893Z,6.97
2018-09-21T02:36:22.495Z,7.67
2018-09-21T02:38:51.068Z,7.47
2018-09-21T02:41:20.039Z,5.47
2018-09-21T02:43:48.572Z,7.33
2018-09-21T02:46:17.144Z,6.83
2018-09-21T02:48:48.273Z,6.30
2018-09-21T02:51:16.756Z,8.23
2018-09-21T02:53:49.820Z,8.20
2018-09-21T02:56:19.532Z,7.07
2018-09-21T02:58:52.959Z,8.53
2018-09-21T03:01:21.546Z,5.97
2018-09-21T03:03:55.524Z,6.37
2018-09-21T03:06:24.105Z,7.37
2018-09-21T03:08:57.749Z,7.53
2018-09-21T03:11:26.755Z,5.70
2018-09-21T03:14:00.485Z,12.60
2018-09-21T03:16:29.056Z,9.27
2018-09-21T03:19:03.371Z,6.57
2018-09-21T03:21:31.671Z,7.87
2018-09-21T03:24:00.464Z,7.80
2018-09-21T03:26:29.928Z,7.07
2018-09-21T03:28:58.181Z,9.43
2018-09-21T03:31:26.737Z,9.30
2018-09-21T03:33:55.573Z,11.90
2018-09-21T03:36:24.156Z,6.87
2018-09-21T03:38:52.487Z,7.97
2018-09-21T03:41:20.979Z,9.47
2018-09-21T03:43:49.652Z,7.67
2018-09-21T03:46:19.395Z,10.30
2018-09-21T03:48:48.128Z,8.47
2018-09-21T03:51:21.758Z,7.40
2018-09-21T03:53:50.057Z,8.83
2018-09-21T03:56:23.571Z,7.27
2018-09-21T03:58:52.150Z,7.67
2018-09-21T04:01:25.792Z,9.00
2018-09-21T04:03:54.377Z,8.83
2018-09-21T04:06:27.695Z,8.17
2018-09-21T04:08:56.268Z,8.67
2018-09-21T04:11:33.676Z,8.50
2018-09-21T04:14:02.612Z,8.80
2018-09-21T04:16:34.687Z,10.53
2018-09-21T04:19:03.252Z,9.33
2018-09-21T04:21:37.995Z,11.93
2018-09-21T04:24:06.737Z,10.43
2018-09-21T04:26:39.918Z,9.80
2018-09-21T04:29:08.545Z,11.33
2018-09-21T04:31:41.639Z,11.77
2018-09-21T04:34:10.529Z,9.77
2018-09-21T04:36:44.183Z,7.73
2018-09-21T04:39:12.959Z,7.77
2018-09-21T04:41:46.466Z,10.57
2018-09-21T04:44:14.747Z,9.60
2018-09-21T04:49:16.852Z,8.93
2018-09-21T04:51:45.149Z,8.80
2018-09-21T04:54:13.723Z,9.60
2018-09-21T04:56:41.968Z,8.70
2018-09-21T04:59:10.458Z,9.97
2018-09-21T05:01:39.111Z,12.73
2018-09-21T05:04:07.718Z,8.20
2018-09-21T05:06:36.283Z,9.13
2018-09-21T05:09:06.248Z,10.93
2018-09-21T05:11:34.512Z,7.20
2018-09-21T05:14:06.789Z,10.93
2018-09-21T05:16:35.213Z,9.57
2018-09-21T05:21:37.738Z,8.57
2018-09-21T05:26:47.951Z,7.77
2018-09-21T05:29:16.630Z,8.30
2018-09-21T05:31:44.863Z,9.77
2018-09-21T05:34:26.072Z,10.17
2018-09-21T05:36:54.798Z,9.90
2018-09-21T05:39:24.055Z,8.57
2018-09-21T05:41:52.709Z,13.53
2018-09-21T05:44:23.483Z,7.67
2018-09-21T05:46:52.200Z,11.13
2018-09-21T05:49:33.784Z,11.47
2018-09-21T05:52:02.726Z,6.33
2018-09-21T05:54:32.332Z,9.77
2018-09-21T05:57:01.790Z,7.10
2018-09-21T05:59:32.496Z,8.57
2018-09-21T06:02:00.745Z,7.47
2018-09-21T06:04:33.122Z,10.80
2018-09-21T06:07:01.689Z,9.00
2018-09-21T06:09:36.172Z,6.27
2018-09-21T06:12:04.725Z,11.00
2018-09-21T06:14:38.815Z,7.70
2018-09-21T06:17:07.396Z,5.97
2018-09-21T06:19:42.081Z,9.50
2018-09-21T06:22:10.693Z,9.63
2018-09-21T06:24:47.973Z,5.97
2018-09-21T06:27:16.244Z,4.93
2018-09-21T06:29:51.618Z,6.27
2018-09-21T06:32:20.514Z,8.13
2018-09-21T06:34:49.740Z,4.70
2018-09-21T06:37:18.441Z,5.70
2018-09-21T06:39:52.392Z,5.33
2018-09-21T06:42:21.073Z,7.83
2018-09-21T06:44:54.550Z,6.47
2018-09-21T06:47:23.078Z,6.10
2018-09-21T06:49:56.581Z,4.10
2018-09-21T06:52:25.811Z,6.63
2018-09-21T06:55:00.048Z,10.23
2018-09-21T06:57:28.676Z,5.20
2018-09-21T06:59:57.499Z,4.63
2018-09-21T07:02:26.832Z,5.07
2018-09-21T07:05:00.939Z,5.97
2018-09-21T07:07:31.148Z,4.47
2018-09-21T07:10:00.395Z,5.23
2018-09-21T07:12:29.012Z,4.93
2018-09-21T07:14:57.901Z,3.47
2018-09-21T07:17:26.129Z,3.30
2018-09-21T07:19:54.402Z,4.37
2018-09-21T07:22:23.276Z,3.63
2018-09-21T07:24:51.906Z,6.00
2018-09-21T07:27:20.574Z,4.03
2018-09-21T07:29:49.493Z,4.20
2018-09-21T07:32:23.645Z,4.77
2018-09-21T07:34:52.369Z,5.23
2018-09-21T07:37:25.283Z,3.33
2018-09-21T07:39:53.546Z,2.17
2018-09-21T07:42:27.929Z,5.80
2018-09-21T07:44:56.540Z,5.03
2018-09-21T07:47:37.776Z,3.70
2018-09-21T07:50:06.518Z,2.03
2018-09-21T07:52:34.791Z,3.13
2018-09-21T07:55:03.424Z,4.27
2018-09-21T07:57:35.700Z,2.03
2018-09-21T08:00:04.904Z,4.47
2018-09-21T08:02:37.151Z,2.07
2018-09-21T08:05:05.886Z,3.87
2018-09-21T08:07:46.902Z,4.57
2018-09-21T08:10:15.167Z,4.07
2018-09-21T08:12:43.465Z,4.23
2018-09-21T08:15:12.343Z,3.10
2018-09-21T08:17:45.262Z,5.47
2018-09-21T08:20:13.885Z,3.17
2018-09-21T08:22:51.101Z,6.17
2018-09-21T08:25:19.367Z,5.07
2018-09-21T08:27:51.911Z,5.60
2018-09-21T08:30:20.615Z,9.20
2018-09-21T08:32:53.220Z,4.83
2018-09-21T08:35:22.218Z,7.37
2018-09-21T08:37:56.204Z,3.07
2018-09-21T08:40:24.497Z,6.47
2018-09-21T08:42:57.941Z,5.10
2018-09-21T08:45:26.594Z,6.77
2018-09-21T08:48:01.058Z,5.10
2018-09-21T08:50:29.295Z,5.73
2018-09-21T08:53:02.692Z,5.53
2018-09-21T08:55:30.972Z,5.67
2018-09-21T08:58:00.518Z,4.73
2018-09-21T09:00:33.647Z,4.10
2018-09-21T09:03:01.957Z,6.50
2018-09-21T09:05:30.834Z,8.20
2018-09-21T09:07:59.110Z,8.10
2018-09-21T09:10:27.792Z,5.77
2018-09-21T09:12:56.027Z,10.43
2018-09-21T09:15:24.661Z,7.23
2018-09-21T09:17:53.501Z,9.37
2018-09-21T09:20:22.577Z,7.20
2018-09-21T09:22:51.228Z,7.50
2018-09-21T09:25:23.572Z,9.50
2018-09-21T09:27:51.812Z,10.83
2018-09-21T09:30:24.356Z,7.40
2018-09-21T09:32:53.333Z,9.53
2018-09-21T09:35:26.765Z,8.60
2018-09-21T09:37:55.011Z,8.00
2018-09-21T09:40:29.089Z,10.20
2018-09-21T09:42:58.347Z,6.10
2018-09-21T09:45:31.790Z,10.73
2018-09-21T09:48:00.659Z,8.77
2018-09-21T09:50:34.374Z,6.60
2018-09-21T09:53:02.973Z,6.60
2018-09-21T09:55:36.329Z,14.13
2018-09-21T09:58:04.904Z,7.30
2018-09-21T10:00:43.254Z,4.60
2018-09-21T10:03:12.108Z,3.80
2018-09-21T10:05:43.681Z,6.33
2018-09-21T10:08:13.618Z,9.30
2018-09-21T10:10:45.396Z,8.37
2018-09-21T10:13:13.979Z,11.47
2018-09-21T10:15:47.373Z,10.63
2018-09-21T10:18:16.232Z,9.33
2018-09-21T10:20:50.332Z,7.90
2018-09-21T10:23:18.922Z,7.93
2018-09-21T10:25:52.483Z,10.30
2018-09-21T10:28:21.245Z,10.30
2018-09-21T10:30:56.998Z,9.70
2018-09-21T10:33:25.396Z,8.43
2018-09-21T10:35:59.800Z,9.93
2018-09-21T10:38:48.908Z,10.30
2018-09-21T10:41:17.578Z,8.77
2018-09-21T10:43:47.925Z,11.70
2018-09-21T10:46:16.966Z,9.10
2018-09-21T10:48:45.257Z,11.37
2018-09-21T10:51:13.881Z,13.30
2018-09-21T10:53:42.433Z,9.97
2018-09-21T10:56:13.323Z,9.00
2018-09-21T10:58:41.987Z,10.53
2018-09-21T11:01:14.690Z,10.27
2018-09-21T11:03:43.375Z,12.10
2018-09-21T11:08:34.150Z,8.87
2018-09-21T11:11:02.434Z,16.30
2018-09-21T11:13:31.596Z,12.70
2018-09-21T11:16:05.945Z,11.83
2018-09-21T11:18:34.613Z,12.23
2018-09-21T11:21:03.364Z,9.77
2018-09-21T11:23:32.052Z,12.17
2018-09-21T11:26:00.346Z,10.57
2018-09-21T11:28:29.291Z,10.37
2018-09-21T11:30:57.745Z,11.87
2018-09-21T11:33:30.345Z,6.47
2018-09-21T11:35:59.375Z,11.57
2018-09-21T11:38:33.396Z,13.93
2018-09-21T11:41:02.851Z,13.03
2018-09-21T11:43:35.083Z,13.53
2018-09-21T11:46:03.910Z,10.17
2018-09-21T11:48:38.256Z,9.17
2018-09-21T11:51:06.799Z,10.57
2018-09-21T11:53:39.595Z,10.00
2018-09-21T11:56:08.275Z,10.33
2018-09-21T11:58:42.476Z,4.33
2018-09-21T12:01:11.208Z,7.03
2018-09-21T12:03:46.098Z,3.20
2018-09-21T12:06:15.139Z,3.03
2018-09-21T12:08:56.678Z,3.83
2018-09-21T12:11:25.222Z,3.40
2018-09-21T12:13:53.492Z,5.03
2018-09-21T12:16:22.091Z,6.60
2018-09-21T12:18:52.693Z,4.90
2018-09-21T12:21:20.920Z,5.50
2018-09-21T12:23:54.794Z,3.43
2018-09-21T12:26:23.686Z,3.40
2018-09-21T12:28:57.062Z,2.43
2018-09-21T12:31:25.705Z,1.83
2018-09-21T12:36:29.519Z,6.30
2018-09-21T12:39:01.907Z,3.50
2018-09-21T12:41:30.778Z,5.83
2018-09-21T12:44:04.371Z,3.90
2018-09-21T12:46:33.023Z,3.40
2018-09-21T12:49:10.052Z,4.30
2018-09-21T12:51:38.830Z,5.00
2018-09-21T12:54:12.893Z,1.70
2018-09-21T12:56:41.542Z,5.20
2018-09-21T12:59:17.179Z,6.13
2018-09-21T13:01:45.825Z,1.40
2018-09-21T13:04:27.236Z,3.47
2018-09-21T13:06:55.891Z,1.70
2018-09-21T13:09:24.123Z,1.87
2018-09-21T13:11:52.331Z,2.53
2018-09-21T13:14:22.310Z,2.37
2018-09-21T13:16:50.512Z,3.17
2018-09-21T13:19:33.044Z,4.30
2018-09-21T13:22:01.681Z,4.20
2018-09-21T13:24:30.280Z,2.97
2018-09-21T13:26:59.168Z,5.87
2018-09-21T13:29:31.526Z,1.97
2018-09-21T13:31:59.855Z,5.20
2018-09-21T13:34:31.808Z,2.80
2018-09-21T13:37:00.128Z,3.10
2018-09-21T13:39:34.555Z,5.03
2018-09-21T13:42:02.827Z,2.93
2018-09-21T13:44:37.263Z,3.90
2018-09-21T13:47:06.192Z,2.30
2018-09-21T13:49:40.326Z,2.17
2018-09-21T13:52:08.963Z,6.60
2018-09-21T13:54:50.685Z,3.53
2018-09-21T13:57:19.327Z,3.50
2018-09-21T13:59:47.641Z,3.60
2018-09-21T14:02:16.264Z,4.93
2018-09-21T14:04:49.228Z,3.23
2018-09-21T14:07:18.433Z,2.60
2018-09-21T14:09:51.048Z,5.30
2018-09-21T14:12:19.663Z,1.33
2018-09-21T14:14:54.249Z,4.57
2018-09-21T14:17:23.019Z,4.83
2018-09-21T14:19:58.442Z,2.97
2018-09-21T14:22:27.017Z,2.43
2018-09-21T14:25:08.232Z,1.13
2018-09-21T14:27:36.488Z,2.33
2018-09-21T14:30:05.267Z,1.30
2018-09-21T14:32:33.921Z,4.43
2018-09-21T14:35:06.448Z,5.83
2018-09-21T14:37:35.079Z,3.67
2018-09-21T14:40:12.691Z,2.93
2018-09-21T14:42:41.306Z,0.80
2018-09-21T14:45:12.245Z,2.50
2018-09-21T14:47:40.844Z,2.60
2018-09-21T14:50:14.739Z,1.40
2018-09-21T14:52:43.287Z,5.07
2018-09-21T14:55:17.077Z,2.23
2018-09-21T14:59:51.817Z,1.27
2018-09-21T15:02:20.069Z,1.63
2018-09-21T15:04:49.645Z,2.30
2018-09-21T15:07:22.440Z,2.53
2018-09-21T15:09:51.328Z,3.73
2018-09-21T15:12:24.837Z,1.93
2018-09-21T15:14:53.425Z,1.70
2018-09-21T15:17:27.196Z,4.07
2018-09-21T15:19:55.816Z,3.53
2018-09-21T15:22:29.179Z,2.77
2018-09-21T15:24:58.142Z,2.07
2018-09-21T15:27:31.354Z,4.20
2018-09-21T15:29:59.941Z,1.83
2018-09-21T15:32:33.319Z,2.20
2018-09-21T15:35:01.953Z,6.13
2018-09-21T15:37:34.982Z,6.03
2018-09-21T15:40:04.137Z,3.37
2018-09-21T15:42:38.141Z,2.47
2018-09-21T15:45:06.826Z,4.57
2018-09-21T15:47:41.195Z,2.97
2018-09-21T15:50:09.813Z,3.47
2018-09-21T15:52:43.112Z,4.17
2018-09-21T15:55:11.646Z,2.90
2018-09-21T16:00:13.293Z,3.50
2018-09-21T16:02:42.004Z,3.13
2018-09-21T16:05:10.734Z,2.70
2018-09-21T16:07:39.628Z,6.23
2018-09-21T16:10:08.717Z,4.40
2018-09-21T16:12:37.566Z,2.80
2018-09-21T16:15:06.047Z,3.43
2018-09-21T16:17:34.735Z,3.13
2018-09-21T16:20:03.420Z,3.60
2018-09-21T16:22:31.680Z,4.47
2018-09-21T16:25:04.580Z,3.53
2018-09-21T16:27:33.310Z,3.83
2018-09-21T16:30:15.145Z,2.87
2018-09-21T16:32:43.718Z,3.13
2018-09-21T16:35:11.983Z,2.27
2018-09-21T16:37:40.597Z,3.80
2018-09-21T16:40:13.812Z,3.13
2018-09-21T16:42:42.052Z,3.33
2018-09-21T16:45:15.773Z,1.90
2018-09-21T16:47:44.774Z,1.60
2018-09-21T16:50:20.448Z,2.90
2018-09-21T16:52:48.707Z,2.50
2018-09-21T16:55:20.360Z,0.97
2018-09-21T16:57:48.638Z,3.93
2018-09-21T17:00:23.228Z,3.03
2018-09-21T17:02:52.316Z,4.27
2018-09-21T17:05:28.340Z,2.40
2018-09-21T17:07:57.116Z,1.87
2018-09-21T17:10:28.715Z,2.10
2018-09-21T17:12:57.352Z,3.33
2018-09-21T17:15:29.528Z,4.40
2018-09-21T17:17:58.076Z,4.33
2018-09-21T17:20:31.766Z,3.50
2018-09-21T17:23:00.330Z,4.23
2018-09-21T17:25:34.136Z,3.67
2018-09-21T17:28:02.792Z,6.27
2018-09-21T17:30:37.715Z,5.00
2018-09-21T17:33:18.687Z,4.90
2018-09-21T17:35:47.376Z,5.20
2018-09-21T17:38:16.581Z,5.33
2018-09-21T17:40:44.849Z,4.63
2018-09-21T17:43:14.120Z,3.93
2018-09-21T17:45:54.804Z,3.63
2018-09-21T17:48:23.708Z,3.03
2018-09-21T17:50:52.353Z,4.10
2018-09-21T17:53:20.978Z,6.30
2018-09-21T17:55:52.568Z,3.10
2018-09-21T17:58:21.216Z,3.17
2018-09-21T18:00:53.863Z,3.27
2018-09-21T18:03:22.518Z,3.57
2018-09-21T18:05:58.006Z,2.63
2018-09-21T18:08:26.248Z,4.53
2018-09-21T18:11:00.042Z,5.30
2018-09-21T18:13:28.641Z,5.40
2018-09-21T18:16:04.138Z,4.20
2018-09-21T18:18:33.025Z,6.73
2018-09-21T18:21:09.524Z,4.60
2018-09-21T18:23:38.777Z,2.53
2018-09-21T18:26:10.917Z,7.03
2018-09-21T18:28:39.101Z,3.70
2018-09-21T18:31:12.592Z,5.03
2018-09-21T18:33:41.074Z,6.57
2018-09-21T18:36:14.746Z,5.17
2018-09-21T18:38:45.838Z,5.70
2018-09-21T18:41:17.553Z,8.60
2018-09-21T18:43:46.297Z,6.10
2018-09-21T18:46:20.132Z,4.97
2018-09-21T18:48:48.792Z,8.10
2018-09-21T18:51:23.100Z,4.97
2018-09-21T18:53:51.673Z,3.63
2018-09-21T18:56:24.056Z,6.30
2018-09-21T18:58:53.155Z,4.87
2018-09-21T19:01:28.285Z,4.10
2018-09-21T19:03:57.358Z,3.37
2018-09-21T19:06:29.134Z,4.33
2018-09-21T19:08:57.485Z,5.17
2018-09-21T19:11:35.186Z,7.27
2018-09-21T19:14:04.185Z,6.50
2018-09-21T19:16:34.569Z,5.57
2018-09-21T19:19:02.972Z,5.53
2018-09-21T19:21:37.445Z,8.23
2018-09-21T19:24:06.127Z,4.40
2018-09-21T19:26:38.742Z,3.97
2018-09-21T19:29:07.264Z,4.50
2018-09-21T19:31:40.244Z,5.73
2018-09-21T19:34:08.810Z,3.93
2018-09-21T19:36:42.209Z,5.87
2018-09-21T19:39:11.820Z,9.83
2018-09-21T19:41:45.630Z,4.80
2018-09-21T19:44:14.237Z,2.97
2018-09-21T19:46:48.036Z,4.77
2018-09-21T19:49:16.632Z,6.20
2018-09-21T19:54:21.064Z,5.17
2018-09-21T19:56:54.027Z,4.10
2018-09-21T19:59:22.335Z,4.30
2018-09-21T20:01:52.429Z,5.87
2018-09-21T20:04:22.144Z,2.63
2018-09-21T20:06:50.427Z,6.00
2018-09-21T20:09:18.672Z,6.83
2018-09-21T20:11:47.532Z,7.57
2018-09-21T20:14:16.177Z,6.70
2018-09-21T20:16:44.803Z,5.80
2018-09-21T20:19:13.470Z,1.80
2018-09-21T20:21:42.065Z,6.00
2018-09-21T20:24:13.478Z,7.17
2018-09-21T20:26:41.978Z,5.73
2018-09-21T20:29:14.990Z,6.97
2018-09-21T20:31:48.884Z,6.90
2018-09-21T20:34:17.932Z,5.47
2018-09-21T20:36:46.524Z,7.73
2018-09-21T20:39:22.527Z,9.07
2018-09-21T20:41:51.047Z,6.33
2018-09-21T20:44:23.426Z,5.83
2018-09-21T20:46:51.987Z,7.50
2018-09-21T20:49:24.376Z,7.17
2018-09-21T20:51:52.677Z,6.93
2018-09-21T20:54:25.590Z,7.83
2018-09-21T20:56:54.458Z,6.33
2018-09-21T20:59:27.382Z,4.87
2018-09-21T21:01:55.631Z,10.50
2018-09-21T21:04:29.678Z,6.03
2018-09-21T21:06:57.914Z,4.63
2018-09-21T21:09:30.527Z,8.70
2018-09-21T21:11:59.863Z,6.27
2018-09-21T21:14:28.428Z,7.60
2018-09-21T21:16:56.984Z,4.33
2018-09-21T21:19:25.882Z,9.60
2018-09-21T21:21:54.472Z,5.17
2018-09-21T21:24:23.048Z,7.80
2018-09-21T21:29:21.445Z,5.93
2018-09-21T21:31:50.066Z,5.57
2018-09-21T21:34:18.953Z,5.50
2018-09-21T21:36:48.786Z,8.40
2018-09-21T21:39:17.402Z,11.93
2018-09-21T21:41:53.053Z,9.00
2018-09-21T21:44:21.379Z,7.00
2018-09-21T21:46:54.062Z,8.63
2018-09-21T21:49:22.897Z,7.80
2018-09-21T21:51:55.770Z,9.07
2018-09-21T21:54:24.367Z,7.57
2018-09-21T21:56:52.669Z,9.57
2018-09-21T22:01:52.751Z,9.63
2018-09-21T22:04:21.359Z,6.30
2018-09-21T22:06:49.967Z,8.73
2018-09-21T22:09:18.821Z,6.33
2018-09-21T22:11:52.525Z,8.13
2018-09-21T22:14:21.306Z,8.57
2018-09-21T22:16:49.815Z,9.90
2018-09-21T22:19:18.392Z,12.93
2018-09-21T22:21:47.006Z,6.27
2018-09-21T22:24:16.094Z,9.47
2018-09-21T22:26:44.695Z,8.60
2018-09-21T22:29:20.114Z,9.80
2018-09-21T22:31:48.996Z,10.03
2018-09-21T22:34:21.156Z,6.00
2018-09-21T22:36:50.107Z,9.47
2018-09-21T22:39:31.684Z,6.40
2018-09-21T22:41:59.899Z,8.83
2018-09-21T22:44:28.540Z,8.97
2018-09-21T22:46:59.765Z,7.73
2018-09-21T22:49:28.338Z,7.13
2018-09-21T22:51:57.169Z,8.50
2018-09-21T22:54:30.057Z,10.07
2018-09-21T22:56:58.644Z,8.53
2018-09-21T22:59:31.939Z,11.20
2018-09-21T23:02:00.504Z,10.30
2018-09-21T23:04:42.334Z,8.47
2018-09-21T23:07:10.831Z,7.20
2018-09-21T23:09:39.403Z,12.33
2018-09-21T23:12:08.044Z,11.20
2018-09-21T23:14:39.763Z,8.37
2018-09-21T23:17:07.975Z,9.73
2018-09-21T23:19:41.294Z,7.27
2018-09-21T23:22:09.810Z,7.40
2018-09-21T23:24:42.885Z,10.20
2018-09-21T23:27:11.461Z,11.23
2018-09-21T23:29:40.835Z,10.07
2018-09-21T23:32:10.417Z,10.33
2018-09-21T23:34:38.658Z,12.03
2018-09-21T23:37:07.274Z,12.20
2018-09-21T23:39:35.858Z,14.23
2018-09-21T23:42:04.463Z,8.90
2018-09-21T23:44:33.304Z,8.13
2018-09-21T23:47:01.893Z,9.50
2018-09-21T23:49:30.473Z,9.70
2018-09-21T23:51:59.157Z,8.67
2018-09-21T23:54:27.419Z,11.60
2018-09-21T23:57:00.584Z,8.73
2018-09-21T23:59:29.072Z,11.07
